Meadow Lake, Alaska
Current Conditions -  °F | °C
As of 2:36 PM on Saturday 25 Oct 2014 (Local Time) from PAWS Reporting Station
Overcast Overcast  
Wind Chill: 32°   Ceiling: 5000
Heat Index: 32°   Visibility: 10mi
Dew Point: 25°   Wind: 3mph
Humidity: 75%   Direction: 270°W
Pressure: 29.84"   Gusts: NA
Location:  61.5841°N, 149.443°W
Report Text: PAWS 252236Z AUTO 27003KT 10SM SCT006 OVC050 00/M04 A2984 RMK AO1
Loading
Personal Weather Stations






























Interactive Weather Map New forecast layout! Learn more

10-Day Weather Forecast

Advertisements
Track Severe Weather on mobile